Thunder radar more information blitzortung!


Radar de pluja more information rain snow radar


Visita la nostra xarxa de llocs de meteo:

Template documentation
and downloads

And another site



No particular awareness of the weather is required.    There are no Weather-warnings

Pagina Historial Weather Underground text

Diari Resum Octubre 6, 2017 Unitats:  Imperial    Mètric   Tant
« Previous Dia
SegĂźent Dia »
Diari Setmana Mensual Anual Personalitzada
  Maxima: Minima: Media:
Temperatura: 82.6 °F 60.6 °F 71.1 °F
Punt de rosada: 63 °F 55.4 °F 59.7 °F
Humitat: 90 % 41 % 69 %
Wind Speed: 12.7 mph 0 mph 3.5 mph
RĂ fegues de vent: 12.7 mph - -
Vent:- - SE
Pression baro: 30.1 in 30 in -
Precipitacions: 0 in    
Historical Graphs
 
 
Dades de taula per Octubre 6, 2017
Temps Temperatura Punt de rosada Pression baro Vent Wind Speed RĂ fegues de vent Humitat Rainfall Rate (Hourly)
00:00 65.1 °F 61.2 °F 30.1 in Calm   2 mph 87 % 0 in
00:09 67.6 °F 63 °F 30.1 in WSW 3.5 mph 3.5 mph 85 % 0 in
00:10 64.9 °F 61 °F 30.1 in NNE 1 mph 2 mph 87 % 0 in
00:14 67.6 °F 63 °F 30.1 in West 2.6 mph 2.6 mph 85 % 0 in
00:20 64.8 °F 60.8 °F 30.1 in Calm   2 mph 87 % 0 in
00:30 64.4 °F 60.4 °F 30.1 in Calm   1 mph 87 % 0 in
00:40 64.2 °F 60.6 °F 30.1 in Calm   1 mph 88 % 0 in
00:50 64 °F 60.4 °F 30.1 in Calm   2 mph 88 % 0 in
01:00 63.7 °F 59.7 °F 30.1 in NNE 1 mph 2 mph 87 % 0 in
01:10 63.5 °F 59.5 °F 30.1 in NNW 1 mph 4 mph 87 % 0 in
01:20 63.1 °F 59.5 °F 30.1 in WNW 1 mph 2 mph 88 % 0 in
01:30 63 °F 59.4 °F 30 in WSW 1 mph 2 mph 88 % 0 in
01:40 62.8 °F 59.2 °F 30 in SW 1 mph 1 mph 88 % 0 in
01:50 62.6 °F 59.4 °F 30.1 in SW 2 mph 3 mph 89 % 0 in
02:00 62.6 °F 59.5 °F 30.1 in Calm   2 mph 90 % 0 in
02:10 62.2 °F 59.4 °F 30.1 in Calm   1 mph 90 % 0 in
02:20 61.5 °F 58.3 °F 30.1 in Calm     89 % 0 in
02:30 61.3 °F 58.1 °F 30.1 in Calm   1 mph 89 % 0 in
02:40 60.6 °F 57.4 °F 30.1 in Calm   3 mph 89 % 0 in
02:50 60.8 °F 57.6 °F 30.1 in Calm   1 mph 89 % 0 in
03:00 60.6 °F 57.4 °F 30.1 in Calm     89 % 0 in
03:10 60.6 °F 57 °F 30.1 in Calm     88 % 0 in
03:20 60.8 °F 57.2 °F 30.1 in WNW 1 mph 1 mph 88 % 0 in
03:30 61 °F 57 °F 30.1 in Calm   2 mph 87 % 0 in
03:40 61.9 °F 57.9 °F 30.1 in North 2 mph 3 mph 87 % 0 in
03:50 63 °F 58.5 °F 30.1 in NE 2 mph 2 mph 85 % 0 in
04:00 63.3 °F 58.1 °F 30.1 in Calm   1 mph 83 % 0 in
04:10 63.3 °F 58.1 °F 30.1 in Calm   2 mph 83 % 0 in
04:20 64.4 °F 58.8 °F 30.1 in West 1 mph 2 mph 82 % 0 in
04:30 66 °F 59.4 °F 30.1 in Calm   1 mph 79 % 0 in
04:40 66.4 °F 58.8 °F 30.1 in West 1 mph 2 mph 77 % 0 in
04:50 67.1 °F 59.4 °F 30.1 in Calm   2 mph 76 % 0 in
05:00 68.7 °F 60.1 °F 30.1 in South 1 mph 2 mph 74 % 0 in
05:20 68.9 °F 59.5 °F 30.1 in NE 2 mph 3 mph 72 % 0 in
05:30 68.7 °F 57.7 °F 30.1 in ENE 2 mph 5 mph 68 % 0 in
05:40 69.8 °F 59.2 °F 30.1 in Calm   2 mph 69 % 0 in
10:44 70 °F 59.4 °F 30.1 in West 3.5 mph 3.5 mph 69 % 0 in
10:45 70.2 °F 59.5 °F 30.1 in WSW 3.5 mph 3.5 mph 69 % 0 in
10:47 70.2 °F 59.5 °F 30.1 in WNW 2.3 mph   69 % 0 in
10:52 70.5 °F 59.4 °F 30.1 in ENE 2.3 mph 2.3 mph 68 % 0 in
10:57 70.2 °F 58.3 °F 30.1 in NNE 4.6 mph 4.6 mph 66 % 0 in
11:02 70.5 °F 59 °F 30.1 in ENE 3.5 mph 3.8 mph 67 % 0 in
11:07 70.5 °F 58.3 °F 30.1 in East 3.5 mph 3.5 mph 65 % 0 in
11:12 70.5 °F 58.3 °F 30.1 in NE 3.5 mph 4.3 mph 65 % 0 in
11:17 70.9 °F 58.5 °F 30.1 in NNE 5.4 mph 5.4 mph 65 % 0 in
11:22 70.5 °F 57.7 °F 30.1 in NNE 4.6 mph 4.6 mph 64 % 0 in
11:27 71.1 °F 58.6 °F 30.1 in ESE 2.4 mph 2.4 mph 65 % 0 in
11:32 71.6 °F 57.4 °F 30.1 in SSE 1.4 mph 2.6 mph 61 % 0 in
11:42 73 °F 59.7 °F 30.1 in North 1.2 mph 1.2 mph 63 % 0 in
11:47 72.9 °F 59.2 °F 30.1 in ENE 4.6 mph 4.6 mph 62 % 0 in
11:52 72.3 °F 58.1 °F 30.1 in ENE 4.6 mph 4.6 mph 61 % 0 in
11:57 72.7 °F 58.8 °F 30.1 in ENE 4.6 mph 4.6 mph 62 % 0 in
12:02 72.5 °F 58.3 °F 30.1 in NE 2.3 mph 3.1 mph 61 % 0 in
12:07 73 °F 58.8 °F 30.1 in WSW 2.4 mph 2.4 mph 61 % 0 in
12:12 73.9 °F 59.5 °F 30.1 in NNW 2.3 mph 2.3 mph 61 % 0 in
12:17 74.8 °F 60.1 °F 30.1 in WNW 3.6 mph 3.6 mph 60 % 0 in
12:22 74.5 °F 59.7 °F 30.1 in ESE 4.9 mph 4.9 mph 60 % 0 in
12:27 74.5 °F 59.2 °F 30.1 in West 2.9 mph 2.9 mph 59 % 0 in
12:37 74.5 °F 59.2 °F 30.1 in SW 3.8 mph 3.8 mph 59 % 0 in
12:42 74.8 °F 59.2 °F 30.1 in WSW 4.6 mph 4.6 mph 58 % 0 in
12:47 75.4 °F 59.2 °F 30.1 in SSE 2.3 mph 2.4 mph 57 % 0 in
12:52 76.1 °F 58.8 °F 30.1 in SE 3.6 mph 3.6 mph 55 % 0 in
12:57 76.3 °F 59.4 °F 30.1 in SW 3.5 mph 3.5 mph 56 % 0 in
13:02 76.3 °F 58.8 °F 30.1 in Calm     55 % 0 in
13:07 77 °F 58.6 °F 30.1 in South 2.3 mph 2.3 mph 53 % 0 in
13:12 77.7 °F 59.2 °F 30.1 in SSE 3.5 mph 3.5 mph 53 % 0 in
13:17 77.9 °F 59.9 °F 30.1 in NW 4.6 mph 4.6 mph 54 % 0 in
13:22 77 °F 57.9 °F 30.1 in NNE 3.5 mph 3.5 mph 52 % 0 in
13:27 77 °F 57.9 °F 30.1 in NE 4.6 mph 4.6 mph 52 % 0 in
13:32 76.6 °F 58.3 °F 30.1 in ENE 3.6 mph 3.6 mph 53 % 0 in
13:37 76.6 °F 57.7 °F 30.1 in SE 4.6 mph   52 % 0 in
13:42 78.1 °F 59 °F 30.1 in South 2.3 mph 2.3 mph 52 % 0 in
13:47 77.2 °F 55.9 °F 30.1 in SSE 4.6 mph 4.6 mph 48 % 0 in
13:52 77.2 °F 56.5 °F 30.1 in ESE 2.3 mph 2.3 mph 49 % 0 in
13:57 77.2 °F 56.5 °F 30.1 in NNE 3.5 mph 3.5 mph 49 % 0 in
14:02 77.5 °F 57.4 °F 30.1 in NW 4.6 mph 4.6 mph 50 % 0 in
14:07 78.1 °F 57.9 °F 30.1 in SW 4.6 mph 4.6 mph 50 % 0 in
14:12 79.2 °F 58.8 °F 30.1 in WSW 5.4 mph 5.4 mph 50 % 0 in
14:17 79.5 °F 58.6 °F 30 in South 4.6 mph 4.6 mph 49 % 0 in
14:27 79.9 °F 57.7 °F 30 in NW 4.6 mph 4.6 mph 47 % 0 in
14:32 80.1 °F 57.4 °F 30.1 in East 3.5 mph 3.5 mph 46 % 0 in
14:37 79.5 °F 57.6 °F 30.1 in South 2.3 mph 2.3 mph 47 % 0 in
14:42 81 °F 57.6 °F 30.1 in SSE 2.9 mph 2.9 mph 45 % 0 in
14:47 80.8 °F 57.6 °F 30.1 in SW 3.6 mph 3.6 mph 45 % 0 in
14:52 80.8 °F 57.6 °F 30.1 in SW 5.8 mph 5.8 mph 45 % 0 in
14:53 80.6 °F 56.7 °F 30.1 in East 4.6 mph 4.6 mph 44 % 0 in
14:58 81.1 °F 56.5 °F 30.1 in NE 3.5 mph 3.5 mph 43 % 0 in
15:03 82.2 °F 58.1 °F 30.1 in NNW 4.6 mph 4.6 mph 44 % 0 in
15:08 82.4 °F 58.3 °F 30.1 in SW 2.9 mph 2.9 mph 44 % 0 in
15:13 81.7 °F 57.6 °F 30.1 in WSW 5.8 mph 5.8 mph 44 % 0 in
15:18 82 °F 57.4 °F 30.1 in West 5.8 mph 5.8 mph 43 % 0 in
15:23 82.6 °F 57.2 °F 30.1 in NE 2.9 mph 2.9 mph 42 % 0 in
15:28 82.4 °F 56.3 °F 30.1 in ESE 2.9 mph 2.9 mph 41 % 0 in
15:33 81.3 °F 55.4 °F 30.1 in ENE 5.8 mph 5.8 mph 41 % 0 in
15:38 79.7 °F 57 °F 30.1 in ESE 9 mph 9 mph 46 % 0 in
15:43 78.4 °F 58.3 °F 30.1 in East 8.1 mph 8.1 mph 50 % 0 in
15:48 77.5 °F 57.9 °F 30.1 in East 8.1 mph 8.1 mph 51 % 0 in
15:53 77.5 °F 58.5 °F 30.1 in ESE 9.2 mph 9.2 mph 52 % 0 in
15:58 77.2 °F 58.6 °F 30.1 in SE 10.4 mph 10.4 mph 53 % 0 in
16:03 76.6 °F 59.7 °F 30.1 in East 8.7 mph 8.7 mph 56 % 0 in
16:08 76.6 °F 60.3 °F 30.1 in ESE 11.5 mph 11.5 mph 57 % 0 in
16:13 76.1 °F 60.3 °F 30.1 in SSE 10.4 mph 10.4 mph 58 % 0 in
16:18 75.7 °F 60.4 °F 30.1 in East 12.7 mph 12.7 mph 59 % 0 in
16:23 75.4 °F 60.4 °F 30.1 in SE 9.2 mph 9.2 mph 60 % 0 in
16:28 75.4 °F 60.4 °F 30 in SE 10.4 mph 10.4 mph 60 % 0 in
16:33 75.2 °F 60.4 °F 30 in ESE 9.7 mph 9.7 mph 60 % 0 in
16:38 75.6 °F 60.6 °F 30 in SSE 4.6 mph 4.6 mph 60 % 0 in
16:43 74.8 °F 61 °F 30.1 in East 8.1 mph 8.1 mph 62 % 0 in
16:48 74.8 °F 61.3 °F 30.1 in ESE 8.1 mph 8.1 mph 63 % 0 in
16:53 74.7 °F 61.7 °F 30.1 in ESE 9.2 mph 9.2 mph 64 % 0 in
16:58 74.5 °F 61.9 °F 30.1 in ENE 6.9 mph 6.9 mph 65 % 0 in
17:03 74.5 °F 61.9 °F 30.1 in ESE 5.8 mph 5.8 mph 65 % 0 in
17:08 74.8 °F 62.2 °F 30.1 in ENE 5.4 mph 5.4 mph 65 % 0 in
17:13 74.8 °F 61.9 °F 30.1 in ENE 4.6 mph 4.6 mph 64 % 0 in
17:18 75 °F 62.1 °F 30.1 in ESE 5.8 mph 5.8 mph 64 % 0 in
17:23 74.8 °F 62.2 °F 30.1 in East 9.2 mph 9.2 mph 65 % 0 in
17:33 74.8 °F 62.2 °F 30 in ESE 4.6 mph 4.6 mph 65 % 0 in
17:38 74.7 °F 62.4 °F 30 in East 9.2 mph 9.2 mph 66 % 0 in
17:43 74.5 °F 62.4 °F 30 in ENE 4.6 mph 4.6 mph 66 % 0 in
17:48 74.3 °F 62.2 °F 30 in East 5.8 mph 5.8 mph 66 % 0 in
17:53 74.1 °F 62.4 °F 30 in NE 5.8 mph 5.8 mph 67 % 0 in
17:58 73.9 °F 62.2 °F 30 in ESE 5.8 mph 5.8 mph 67 % 0 in
18:03 73.9 °F 62.8 °F 30 in ENE 4.6 mph 4.6 mph 68 % 0 in
18:08 73.6 °F 62.8 °F 30 in ENE 6.9 mph 6.9 mph 69 % 0 in
18:13 73.2 °F 62.4 °F 30.1 in ESE 8.1 mph 8.1 mph 69 % 0 in
18:18 72.9 °F 62.1 °F 30.1 in ENE 5.8 mph 5.8 mph 69 % 0 in
18:24 72.9 °F 62.4 °F 30.1 in ESE 5.8 mph 5.8 mph 70 % 0 in
18:34 72.5 °F 62.2 °F 30 in NNE 4.6 mph 4.6 mph 70 % 0 in
18:39 72.5 °F 62.2 °F 30 in East 8.1 mph 8.1 mph 70 % 0 in
18:44 72.3 °F 62.4 °F 30.1 in ENE 4 mph 4 mph 71 % 0 in
18:49 72 °F 62.1 °F 30.1 in ENE 4.6 mph 4.6 mph 71 % 0 in
18:54 72 °F 62.1 °F 30.1 in East 6 mph 6 mph 71 % 0 in
18:59 71.8 °F 61.9 °F 30.1 in East 4.6 mph 4.6 mph 71 % 0 in
19:04 71.6 °F 61.7 °F 30.1 in ESE 5.8 mph 5.8 mph 71 % 0 in
19:09 71.4 °F 61.9 °F 30.1 in East 3.5 mph 3.5 mph 72 % 0 in
19:14 71.2 °F 61.7 °F 30.1 in ESE 4.6 mph 4.6 mph 72 % 0 in
19:19 71.1 °F 61.5 °F 30.1 in ESE 4.6 mph 4.6 mph 72 % 0 in
19:24 70.9 °F 61.3 °F 30.1 in ENE 4.6 mph 4.6 mph 72 % 0 in
19:29 70.7 °F 61.2 °F 30.1 in ESE 4.9 mph 4.9 mph 72 % 0 in
19:34 70.5 °F 61.2 °F 30.1 in ESE 4.6 mph 4.6 mph 72 % 0 in
19:39 70.3 °F 61 °F 30.1 in ESE 4.6 mph 4.6 mph 72 % 0 in
19:44 70.2 °F 60.6 °F 30.1 in SE 4.6 mph 4.6 mph 72 % 0 in
19:49 70 °F 60.4 °F 30.1 in NE 4.7 mph 4.7 mph 72 % 0 in
19:54 69.8 °F 60.8 °F 30.1 in ENE 3.5 mph 3.5 mph 73 % 0 in
19:59 69.8 °F 60.8 °F 30.1 in NNE 3.5 mph 3.5 mph 73 % 0 in
20:04 69.6 °F 60.6 °F 30.1 in East 4.3 mph 4.3 mph 73 % 0 in
20:09 69.4 °F 60.4 °F 30.1 in ENE 3.5 mph 3.5 mph 73 % 0 in
20:14 69.3 °F 60.6 °F 30.1 in ENE 4.6 mph 4.6 mph 74 % 0 in
20:19 69.3 °F 60.6 °F 30.1 in ESE 3.6 mph 3.6 mph 74 % 0 in
20:24 69.1 °F 60.4 °F 30.1 in ENE 2 mph 2.2 mph 74 % 0 in
20:29 69.1 °F 60.8 °F 30.1 in ENE 4.3 mph 4.3 mph 75 % 0 in
20:34 68.9 °F 60.6 °F 30.1 in ENE 2.3 mph 2.3 mph 75 % 0 in
20:39 68.7 °F 60.4 °F 30.1 in North 3.5 mph 3.5 mph 75 % 0 in
20:44 68.7 °F 60.8 °F 30.1 in NE 4.6 mph 4.6 mph 76 % 0 in
20:49 68.7 °F 60.8 °F 30.1 in ENE 4.6 mph 4.6 mph 76 % 0 in
20:54 68.5 °F 60.6 °F 30.1 in East 3.5 mph 3.5 mph 76 % 0 in
20:58 68.4 °F 61 °F 30.1 in ENE 5.8 mph 5.8 mph 77 % 0 in
21:03 68.4 °F 61 °F 30.1 in ESE 2.3 mph 2.3 mph 77 % 0 in
21:08 68.2 °F 61.2 °F 30.1 in SE 3.5 mph 3.5 mph 78 % 0 in
21:13 68.2 °F 61.2 °F 30.1 in ESE 2.6 mph 2.6 mph 78 % 0 in
21:18 68 °F 61.2 °F 30.1 in ESE 4.6 mph 4.6 mph 79 % 0 in
21:23 68 °F 61.2 °F 30.1 in East 4.6 mph 4.6 mph 79 % 0 in
21:28 67.8 °F 61.2 °F 30.1 in ESE 2.6 mph 2.6 mph 79 % 0 in
21:33 67.8 °F 61.2 °F 30.1 in East 1.2 mph   79 % 0 in
21:38 67.6 °F 60.4 °F 30.1 in ENE 2.3 mph 2.3 mph 78 % 0 in
21:43 67.5 °F 60.6 °F 30.1 in NE 2.9 mph 2.9 mph 79 % 0 in
21:48 67.3 °F 60.4 °F 30.1 in ESE 2.3 mph 2.3 mph 79 % 0 in
21:53 67.3 °F 60.4 °F 30.1 in East 3.5 mph 3.5 mph 79 % 0 in
21:58 67.3 °F 60.4 °F 30.1 in Calm     79 % 0 in
22:03 67.1 °F 60.4 °F 30.1 in SSW 1.2 mph 1.2 mph 79 % 0 in
22:08 66.6 °F 59.5 °F 30.1 in SW 2.3 mph 2.3 mph 78 % 0 in
22:13 66.4 °F 59.4 °F 30.1 in SW 2.3 mph 2.3 mph 78 % 0 in
22:18 66.2 °F 59.2 °F 30.1 in SW 2.3 mph 2.3 mph 78 % 0 in
22:23 66 °F 59.7 °F 30.1 in Calm     80 % 0 in
22:33 65.8 °F 59.5 °F 30.1 in SW 1.6 mph   80 % 0 in
22:38 65.8 °F 59.5 °F 30.1 in SW 2.3 mph 2.3 mph 80 % 0 in
22:43 65.8 °F 59.5 °F 30.1 in Calm     80 % 0 in
22:48 65.8 °F 59.5 °F 30.1 in SW 2.3 mph 2.3 mph 80 % 0 in
22:53 65.8 °F 59.7 °F 30.1 in Calm     81 % 0 in
22:58 65.7 °F 59.7 °F 30.1 in Calm     81 % 0 in
23:03 65.7 °F 59.7 °F 30.1 in Calm     81 % 0 in
23:08 65.5 °F 59.5 °F 30.1 in Calm     81 % 0 in
23:13 65.5 °F 59.5 °F 30.1 in Calm     81 % 0 in
23:18 65.3 °F 59.4 °F 30.1 in Calm     81 % 0 in
23:23 65.3 °F 59.4 °F 30.1 in Calm     81 % 0 in
23:28 65.1 °F 59.2 °F 30.1 in Calm     81 % 0 in
23:33 65.3 °F 59.4 °F 30.1 in Calm     81 % 0 in
23:38 65.3 °F 59.4 °F 30.1 in Calm     81 % 0 in
23:43 65.3 °F 59.4 °F 30.1 in Calm     81 % 0 in
23:48 65.1 °F 59.2 °F 30.1 in Calm     81 % 0 in
23:53 65.1 °F 59.2 °F 30.1 in Calm     81 % 0 in
23:58 65.1 °F 59.5 °F 30.1 in Calm     82 % 0 in
Meteo Sesrovires
Elogis d' Weather Underground - 3.5 mb

Guio original per  Jim McMurry - jmcmurry@mwt.net Adaptat per a la plantilla per  Wim van der Kuil - Leuven-Template.eu

Trobareu la nostra informacio del temps tambe a:

Weather Underground

AWEKAS